createdAt,value
2018-09-13T00:00:48.102Z,6.90
2018-09-13T00:03:18.507Z,6.90
2018-09-13T00:05:48.076Z,7.00
2018-09-13T00:08:18.513Z,6.97
2018-09-13T00:10:49.084Z,7.27
2018-09-13T00:13:18.660Z,7.80
2018-09-13T00:15:48.292Z,7.40
2018-09-13T00:18:19.061Z,7.83
2018-09-13T00:20:49.590Z,6.70
2018-09-13T00:23:20.179Z,7.90
2018-09-13T00:25:50.640Z,7.43
2018-09-13T00:28:21.067Z,8.03
2018-09-13T00:30:50.668Z,8.33
2018-09-13T00:33:20.183Z,9.03
2018-09-13T00:35:49.656Z,9.47
2018-09-13T00:38:19.210Z,8.47
2018-09-13T00:40:49.938Z,7.17
2018-09-13T00:43:19.442Z,6.70
2018-09-13T00:45:49.239Z,7.60
2018-09-13T00:48:18.982Z,8.97
2018-09-13T00:50:49.851Z,10.03
2018-09-13T00:53:19.766Z,10.47
2018-09-13T00:55:51.102Z,9.93
2018-09-13T00:58:20.866Z,9.97
2018-09-13T01:00:52.454Z,8.90
2018-09-13T01:03:21.962Z,10.40
2018-09-13T01:05:51.449Z,9.47
2018-09-13T01:08:21.069Z,9.73
2018-09-13T01:10:50.921Z,9.73
2018-09-13T01:13:20.447Z,9.53
2018-09-13T01:15:50.117Z,9.40
2018-09-13T01:18:21.172Z,8.23
2018-09-13T01:20:50.824Z,9.23
2018-09-13T01:23:20.292Z,8.23
2018-09-13T01:25:49.947Z,8.37
2018-09-13T01:28:19.473Z,8.80
2018-09-13T01:30:49.957Z,7.83
2018-09-13T01:33:19.415Z,8.57
2018-09-13T01:35:50.357Z,8.50
2018-09-13T01:38:19.989Z,7.63
2018-09-13T01:40:49.648Z,7.80
2018-09-13T01:43:19.121Z,7.07
2018-09-13T01:45:48.605Z,7.50
2018-09-13T01:48:18.120Z,7.20
2018-09-13T01:50:47.716Z,7.73
2018-09-13T01:53:19.172Z,6.43
2018-09-13T01:55:48.716Z,6.00
2018-09-13T01:58:18.230Z,6.50
2018-09-13T02:00:47.748Z,5.93
2018-09-13T02:03:17.281Z,6.00
2018-09-13T02:05:46.772Z,5.73
2018-09-13T02:08:20.041Z,5.53
2018-09-13T02:10:49.721Z,5.50
2018-09-13T02:13:19.248Z,4.33
2018-09-13T02:15:48.842Z,4.53
2018-09-13T02:18:18.370Z,4.50
2018-09-13T02:20:47.828Z,4.50
2018-09-13T02:23:17.425Z,4.83
2018-09-13T02:25:47.885Z,5.00
2018-09-13T02:28:18.375Z,4.17
2018-09-13T02:30:47.868Z,4.47
2018-09-13T02:33:17.315Z,4.67
2018-09-13T02:35:46.837Z,4.80
2018-09-13T02:38:16.255Z,5.00
2018-09-13T02:40:45.774Z,4.30
2018-09-13T02:43:15.287Z,5.47
2018-09-13T02:45:44.792Z,4.83
2018-09-13T02:48:14.357Z,5.00
2018-09-13T02:50:46.876Z,4.90
2018-09-13T02:53:16.350Z,4.10
2018-09-13T02:55:45.927Z,4.30
2018-09-13T02:58:15.442Z,3.77
2018-09-13T03:00:45.323Z,4.13
2018-09-13T03:03:14.788Z,4.20
2018-09-13T03:05:45.442Z,4.50
2018-09-13T03:08:15.031Z,3.47
2018-09-13T03:10:44.498Z,4.20
2018-09-13T03:13:14.015Z,4.50
2018-09-13T03:15:43.386Z,4.70
2018-09-13T03:18:13.076Z,3.70
2018-09-13T03:20:42.606Z,4.23
2018-09-13T03:23:14.324Z,4.40
2018-09-13T03:25:43.970Z,5.43
2018-09-13T03:28:13.654Z,5.43
2018-09-13T03:30:43.211Z,5.73
2018-09-13T03:33:12.863Z,5.67
2018-09-13T03:35:42.309Z,5.63
2018-09-13T03:38:12.288Z,6.10
2018-09-13T03:40:41.802Z,6.57
2018-09-13T03:43:11.650Z,6.17
2018-09-13T03:45:41.123Z,6.03
2018-09-13T03:48:10.555Z,6.00
2018-09-13T03:50:40.485Z,6.43
2018-09-13T03:53:09.988Z,5.50
2018-09-13T03:55:39.476Z,6.10
2018-09-13T03:58:08.926Z,6.13
2018-09-13T04:00:38.522Z,5.23
2018-09-13T04:03:08.160Z,6.00
2018-09-13T04:05:37.538Z,6.20
2018-09-13T04:08:09.661Z,6.77
2018-09-13T04:10:39.154Z,5.97
2018-09-13T04:13:14.549Z,5.63
2018-09-13T04:15:44.071Z,5.20
2018-09-13T04:18:13.472Z,5.17
2018-09-13T04:20:43.041Z,4.70
2018-09-13T04:23:12.982Z,5.03
2018-09-13T04:25:42.784Z,5.63
2018-09-13T04:28:12.318Z,5.33
2018-09-13T04:30:42.097Z,5.70
2018-09-13T04:33:11.601Z,5.37
2018-09-13T04:35:41.960Z,4.57
2018-09-13T04:38:11.576Z,4.57
2018-09-13T04:40:41.484Z,4.37
2018-09-13T04:43:11.010Z,4.97
2018-09-13T04:45:40.808Z,5.20
2018-09-13T04:48:10.406Z,4.23
2018-09-13T04:50:39.892Z,4.60
2018-09-13T04:53:09.419Z,4.80
2018-09-13T04:55:38.903Z,4.77
2018-09-13T04:58:08.765Z,4.53
2018-09-13T05:00:38.282Z,5.33
2018-09-13T05:03:07.834Z,4.87
2018-09-13T05:05:37.760Z,4.90
2018-09-13T05:08:07.294Z,5.10
2018-09-13T05:10:37.087Z,4.17
2018-09-13T05:13:07.343Z,5.10
2018-09-13T05:15:36.765Z,4.57
2018-09-13T05:18:07.844Z,4.83
2018-09-13T05:20:37.439Z,5.00
2018-09-13T05:23:07.146Z,4.90
2018-09-13T05:25:37.066Z,5.00
2018-09-13T05:28:08.087Z,5.00
2018-09-13T05:30:37.736Z,4.70
2018-09-13T05:33:07.395Z,4.93
2018-09-13T05:35:37.207Z,5.10
2018-09-13T05:38:07.864Z,4.80
2018-09-13T05:40:39.604Z,5.17
2018-09-13T05:43:09.267Z,4.90
2018-09-13T05:45:39.073Z,5.20
2018-09-13T05:48:08.575Z,4.60
2018-09-13T05:50:39.842Z,4.43
2018-09-13T05:53:10.410Z,4.50
2018-09-13T05:55:39.845Z,4.27
2018-09-13T05:58:10.758Z,4.30
2018-09-13T06:00:40.184Z,4.70
2018-09-13T06:03:09.836Z,4.57
2018-09-13T06:05:40.313Z,4.97
2018-09-13T06:08:12.276Z,5.17
2018-09-13T06:10:41.956Z,5.67
2018-09-13T06:13:11.564Z,5.10
2018-09-13T06:15:41.405Z,4.60
2018-09-13T06:18:11.314Z,5.43
2018-09-13T06:20:40.867Z,6.00
2018-09-13T06:23:12.171Z,5.70
2018-09-13T06:25:41.996Z,5.00
2018-09-13T06:28:12.012Z,5.63
2018-09-13T06:30:41.774Z,6.07
2018-09-13T06:33:11.469Z,5.80
2018-09-13T06:35:41.057Z,5.03
2018-09-13T06:38:11.017Z,4.37
2018-09-13T06:40:40.416Z,4.87
2018-09-13T06:43:10.675Z,4.30
2018-09-13T06:45:40.280Z,4.03
2018-09-13T06:48:10.394Z,4.50
2018-09-13T06:50:39.866Z,5.10
2018-09-13T06:53:09.459Z,4.63
2018-09-13T06:55:39.043Z,5.53
2018-09-13T06:58:08.959Z,4.80
2018-09-13T07:00:38.693Z,6.43
2018-09-13T07:03:10.249Z,5.50
2018-09-13T07:05:39.776Z,6.37
2018-09-13T07:08:09.462Z,6.03
2018-09-13T07:10:39.037Z,4.90
2018-09-13T07:13:08.538Z,5.63
2018-09-13T07:15:37.955Z,5.27
2018-09-13T07:18:07.649Z,5.43
2018-09-13T07:20:37.149Z,5.93
2018-09-13T07:23:06.587Z,4.90
2018-09-13T07:25:36.203Z,5.57
2018-09-13T07:28:06.638Z,5.17
2018-09-13T07:30:36.064Z,5.43
2018-09-13T07:33:05.626Z,5.90
2018-09-13T07:35:35.286Z,6.33
2018-09-13T07:38:06.304Z,6.40
2018-09-13T07:40:35.781Z,5.93
2018-09-13T07:43:05.590Z,6.43
2018-09-13T07:45:36.132Z,5.83
2018-09-13T07:48:05.736Z,5.47
2018-09-13T07:50:37.280Z,5.80
2018-09-13T07:53:06.852Z,5.83
2018-09-13T07:55:36.364Z,7.60
2018-09-13T07:58:05.843Z,7.77
2018-09-13T08:00:36.266Z,8.33
2018-09-13T08:03:06.972Z,8.23
2018-09-13T08:05:36.495Z,7.57
2018-09-13T08:08:05.935Z,8.67
2018-09-13T08:10:35.518Z,9.87
2018-09-13T08:13:05.252Z,9.03
2018-09-13T08:15:35.480Z,8.80
2018-09-13T08:18:05.143Z,8.37
2018-09-13T08:20:34.655Z,8.77
2018-09-13T08:23:04.031Z,6.80
2018-09-13T08:25:34.517Z,7.70
2018-09-13T08:28:03.963Z,7.17
2018-09-13T08:30:33.442Z,8.37
2018-09-13T08:33:03.204Z,8.87
2018-09-13T08:35:32.778Z,10.17
2018-09-13T08:38:02.338Z,12.03
2018-09-13T08:40:31.932Z,11.57
2018-09-13T08:43:01.668Z,12.17
2018-09-13T08:45:31.071Z,11.20
2018-09-13T08:48:00.516Z,12.57
2018-09-13T08:50:29.970Z,12.37
2018-09-13T08:52:59.709Z,11.67
2018-09-13T08:55:30.246Z,11.93
2018-09-13T08:58:01.845Z,11.60
2018-09-13T09:00:32.689Z,10.80
2018-09-13T09:03:02.242Z,11.53
2018-09-13T09:05:31.761Z,11.77
2018-09-13T09:08:01.327Z,11.13
2018-09-13T09:10:30.859Z,10.93
2018-09-13T09:13:01.943Z,11.67
2018-09-13T09:15:32.422Z,11.90
2018-09-13T09:18:02.950Z,12.10
2018-09-13T09:20:32.644Z,11.70
2018-09-13T09:23:02.229Z,12.77
2018-09-13T09:25:32.923Z,13.27
2018-09-13T09:28:02.434Z,14.90
2018-09-13T09:30:37.590Z,15.13
2018-09-13T09:33:07.721Z,14.17
2018-09-13T09:35:37.372Z,14.53
2018-09-13T09:38:06.984Z,14.37
2018-09-13T09:40:36.543Z,17.87
2018-09-13T09:43:06.417Z,18.23
2018-09-13T09:45:36.045Z,17.77
2018-09-13T09:48:07.646Z,15.87
2018-09-13T09:50:37.085Z,17.30
2018-09-13T09:53:06.935Z,16.90
2018-09-13T09:55:39.490Z,16.47
2018-09-13T09:58:09.056Z,15.97
2018-09-13T10:00:43.674Z,16.03
2018-09-13T10:03:14.383Z,17.00
2018-09-13T10:05:43.860Z,17.50
2018-09-13T10:08:13.426Z,17.17
2018-09-13T10:10:43.876Z,17.37
2018-09-13T10:13:13.480Z,15.70
2018-09-13T10:15:48.277Z,16.70
2018-09-13T10:18:23.014Z,17.30
2018-09-13T10:20:57.958Z,17.87
2018-09-13T10:23:32.924Z,17.07
2018-09-13T10:26:07.465Z,17.73
2018-09-13T10:28:44.347Z,17.47
2018-09-13T10:31:19.445Z,18.73
2018-09-13T10:33:55.394Z,17.97
2018-09-13T10:36:30.164Z,17.33
2018-09-13T10:39:04.794Z,17.30
2018-09-13T10:41:43.437Z,18.67
2018-09-13T10:44:18.255Z,19.07
2018-09-13T10:46:55.096Z,18.20
2018-09-13T10:49:30.606Z,17.67
2018-09-13T10:52:07.293Z,19.50
2018-09-13T10:54:39.733Z,19.10
2018-09-13T10:57:15.509Z,19.07
2018-09-13T10:59:46.418Z,19.40
2018-09-13T11:02:15.959Z,20.10
2018-09-13T11:04:45.892Z,18.90
2018-09-13T11:07:16.571Z,18.43
2018-09-13T11:09:47.767Z,18.33
2018-09-13T11:12:17.721Z,19.00
2018-09-13T11:14:58.221Z,19.33
2018-09-13T11:17:31.240Z,19.37
2018-09-13T11:20:00.696Z,18.80
2018-09-13T11:22:31.405Z,19.57
2018-09-13T11:25:00.969Z,19.13
2018-09-13T11:27:32.309Z,20.20
2018-09-13T11:30:01.961Z,22.40
2018-09-13T11:32:31.520Z,21.47
2018-09-13T11:35:01.494Z,19.93
2018-09-13T11:37:31.696Z,19.37
2018-09-13T11:40:01.299Z,20.00
2018-09-13T11:42:30.866Z,18.27
2018-09-13T11:45:00.695Z,18.70
2018-09-13T11:47:30.494Z,17.60
2018-09-13T11:50:00.053Z,17.63
2018-09-13T11:52:30.373Z,17.63
2018-09-13T11:55:05.281Z,17.27
2018-09-13T11:57:35.570Z,16.93
2018-09-13T12:00:05.157Z,17.97
2018-09-13T12:02:34.666Z,17.70
2018-09-13T12:05:05.522Z,16.87
2018-09-13T12:07:35.100Z,17.27
2018-09-13T12:10:05.004Z,18.83
2018-09-13T12:12:34.565Z,18.00
2018-09-13T12:15:04.989Z,21.07
2018-09-13T12:17:34.531Z,17.20
2018-09-13T12:20:04.176Z,18.17
2018-09-13T12:22:34.330Z,18.30
2018-09-13T12:25:03.962Z,18.20
2018-09-13T12:27:34.251Z,16.73
2018-09-13T12:30:04.864Z,18.00
2018-09-13T12:32:35.436Z,15.73
2018-09-13T12:35:05.277Z,16.03
2018-09-13T12:37:34.919Z,15.00
2018-09-13T12:40:04.996Z,16.00
2018-09-13T12:42:36.542Z,15.43
2018-09-13T12:45:07.516Z,15.43
2018-09-13T12:47:37.544Z,14.57
2018-09-13T12:50:07.727Z,14.77
2018-09-13T12:52:39.435Z,14.30
2018-09-13T12:55:10.731Z,14.50
2018-09-13T12:57:40.270Z,13.87
2018-09-13T13:00:09.958Z,14.07
2018-09-13T13:02:39.589Z,14.53
2018-09-13T13:05:09.207Z,14.30
2018-09-13T13:07:39.025Z,13.07
2018-09-13T13:10:09.013Z,12.23
2018-09-13T13:12:38.617Z,12.77
2018-09-13T13:15:08.164Z,12.97
2018-09-13T13:17:38.396Z,12.73
2018-09-13T13:20:08.252Z,12.37
2018-09-13T13:22:38.048Z,12.23
2018-09-13T13:25:07.536Z,12.07
2018-09-13T13:27:37.320Z,11.53
2018-09-13T13:30:07.219Z,11.30
2018-09-13T13:32:37.015Z,11.30
2018-09-13T13:35:07.216Z,10.60
2018-09-13T13:37:36.967Z,9.37
2018-09-13T13:40:06.566Z,9.83
2018-09-13T13:42:38.222Z,10.83
2018-09-13T13:45:07.755Z,9.73
2018-09-13T13:47:37.815Z,10.60
2018-09-13T13:50:07.737Z,9.47
2018-09-13T13:52:37.311Z,10.23
2018-09-13T13:55:07.165Z,9.97
2018-09-13T13:57:37.885Z,9.17
2018-09-13T14:00:07.512Z,9.03
2018-09-13T14:02:38.046Z,7.40
2018-09-13T14:05:07.550Z,7.83
2018-09-13T14:07:37.105Z,9.00
2018-09-13T14:10:07.997Z,7.93
2018-09-13T14:12:38.239Z,7.47
2018-09-13T14:15:07.907Z,9.13
2018-09-13T14:17:37.891Z,6.50
2018-09-13T14:20:07.644Z,6.13
2018-09-13T14:22:37.842Z,6.73
2018-09-13T14:25:07.444Z,6.90
2018-09-13T14:27:37.358Z,7.00
2018-09-13T14:30:06.996Z,6.90
2018-09-13T14:32:38.111Z,6.80
2018-09-13T14:35:08.004Z,7.03
2018-09-13T14:37:37.853Z,7.50
2018-09-13T14:40:07.805Z,8.90
2018-09-13T14:42:37.527Z,7.67
2018-09-13T14:45:07.358Z,7.17
2018-09-13T14:47:37.140Z,6.97
2018-09-13T14:50:08.604Z,9.67
2018-09-13T14:52:39.215Z,9.67
2018-09-13T14:55:08.851Z,9.00
2018-09-13T14:57:38.341Z,7.20
2018-09-13T15:00:09.034Z,7.67
2018-09-13T15:02:38.653Z,7.50
2018-09-13T15:05:08.373Z,7.27
2018-09-13T15:07:37.902Z,8.53
2018-09-13T15:10:07.908Z,8.93
2018-09-13T15:12:37.550Z,7.27
2018-09-13T15:15:07.179Z,7.20
2018-09-13T15:17:36.826Z,5.90
2018-09-13T15:20:06.876Z,6.03
2018-09-13T15:22:36.352Z,5.83
2018-09-13T15:25:06.030Z,6.43
2018-09-13T15:27:35.788Z,5.53
2018-09-13T15:30:05.606Z,6.77
2018-09-13T15:32:35.235Z,7.00
2018-09-13T15:35:05.069Z,6.33
2018-09-13T15:37:35.056Z,5.97
2018-09-13T15:40:04.763Z,6.33
2018-09-13T15:42:35.517Z,7.67
2018-09-13T15:45:05.148Z,6.30
2018-09-13T15:47:35.621Z,5.33
2018-09-13T15:50:06.529Z,3.80
2018-09-13T15:52:36.319Z,3.50
2018-09-13T15:55:05.787Z,3.80
2018-09-13T15:57:35.475Z,3.30
2018-09-13T16:00:06.043Z,2.93
2018-09-13T16:02:39.664Z,3.07
2018-09-13T16:05:09.244Z,2.70
2018-09-13T16:07:38.758Z,3.07
2018-09-13T16:10:08.350Z,3.17
2018-09-13T16:12:37.957Z,3.30
2018-09-13T16:15:07.369Z,2.80
2018-09-13T16:17:36.883Z,2.70
2018-09-13T16:20:06.659Z,2.67
2018-09-13T16:22:38.217Z,3.30
2018-09-13T16:25:07.738Z,2.90
2018-09-13T16:27:37.297Z,2.90
2018-09-13T16:30:06.828Z,2.90
2018-09-13T16:32:37.487Z,2.80
2018-09-13T16:35:07.572Z,3.40
2018-09-13T16:37:42.237Z,3.60
2018-09-13T16:40:16.998Z,4.73
2018-09-13T16:42:53.987Z,4.20
2018-09-13T16:45:28.538Z,4.50
2018-09-13T16:47:59.536Z,4.90
2018-09-13T16:50:30.089Z,5.67
2018-09-13T16:52:59.945Z,5.27
2018-09-13T16:55:29.382Z,6.47
2018-09-13T16:57:59.044Z,6.77
2018-09-13T17:00:28.547Z,7.40
2018-09-13T17:02:58.193Z,7.90
2018-09-13T17:05:27.733Z,8.87
2018-09-13T17:07:57.317Z,8.43
2018-09-13T17:10:28.892Z,10.00
2018-09-13T17:13:00.352Z,9.63
2018-09-13T17:15:29.988Z,9.20
2018-09-13T17:17:59.430Z,9.60
2018-09-13T17:20:28.938Z,10.17
2018-09-13T17:22:58.580Z,10.97
2018-09-13T17:25:28.262Z,10.07
2018-09-13T17:27:57.919Z,10.37
2018-09-13T17:30:27.559Z,11.57
2018-09-13T17:32:57.101Z,10.33
2018-09-13T17:35:28.173Z,12.93
2018-09-13T17:37:57.748Z,12.33
2018-09-13T17:40:27.350Z,12.13
2018-09-13T17:42:57.810Z,11.50
2018-09-13T17:45:27.301Z,12.33
2018-09-13T17:47:57.795Z,12.17
2018-09-13T17:50:27.973Z,12.03
2018-09-13T17:52:57.599Z,12.50
2018-09-13T17:55:27.328Z,11.87
2018-09-13T17:57:57.008Z,11.57
2018-09-13T18:00:26.555Z,11.80
2018-09-13T18:02:56.126Z,11.30
2018-09-13T18:05:25.625Z,11.63
2018-09-13T18:07:56.200Z,10.70
2018-09-13T18:10:25.685Z,10.63
2018-09-13T18:12:55.342Z,10.93
2018-09-13T18:15:24.938Z,11.00
2018-09-13T18:17:54.476Z,13.13
2018-09-13T18:20:23.978Z,12.07
2018-09-13T18:22:53.567Z,12.17
2018-09-13T18:25:23.044Z,12.20
2018-09-13T18:27:52.539Z,13.30
2018-09-13T18:30:23.047Z,14.60
2018-09-13T18:32:52.544Z,14.83
2018-09-13T18:35:22.142Z,13.80
2018-09-13T18:37:51.697Z,15.97
2018-09-13T18:40:21.297Z,15.50
2018-09-13T18:42:50.801Z,14.70
2018-09-13T18:45:20.401Z,16.37
2018-09-13T18:47:49.816Z,16.70
2018-09-13T18:50:19.352Z,14.33
2018-09-13T18:52:48.914Z,17.50
2018-09-13T18:55:18.485Z,17.77
2018-09-13T18:57:47.969Z,15.57
2018-09-13T19:00:17.449Z,15.53
2018-09-13T19:02:46.988Z,15.33
2018-09-13T19:05:16.565Z,15.17
2018-09-13T19:07:47.048Z,15.80
2018-09-13T19:10:16.546Z,15.53
2018-09-13T19:12:46.392Z,16.13
2018-09-13T19:15:15.976Z,15.10
2018-09-13T19:17:45.506Z,17.13
2018-09-13T19:20:14.949Z,15.50
2018-09-13T19:22:44.524Z,15.63
2018-09-13T19:25:14.173Z,16.53
2018-09-13T19:27:43.750Z,17.43
2018-09-13T19:30:13.194Z,15.37
2018-09-13T19:32:42.725Z,15.07
2018-09-13T19:35:12.221Z,16.27
2018-09-13T19:37:42.095Z,16.43
2018-09-13T19:40:11.655Z,18.03
2018-09-13T19:42:42.388Z,18.07
2018-09-13T19:45:11.948Z,17.40
2018-09-13T19:47:41.408Z,18.53
2018-09-13T19:50:10.910Z,19.30
2018-09-13T19:52:41.512Z,19.53
2018-09-13T19:55:10.952Z,18.70
2018-09-13T19:57:40.453Z,20.37
2018-09-13T20:00:09.987Z,18.87
2018-09-13T20:02:39.823Z,19.90
2018-09-13T20:05:09.286Z,20.13
2018-09-13T20:07:38.754Z,19.87
2018-09-13T20:10:08.300Z,19.93
2018-09-13T20:12:37.758Z,19.53
2018-09-13T20:15:09.856Z,20.80
2018-09-13T20:17:42.188Z,19.83
2018-09-13T20:20:12.989Z,19.90
2018-09-13T20:22:42.473Z,19.80
2018-09-13T20:25:11.991Z,19.93
2018-09-13T20:27:41.438Z,21.90
2018-09-13T20:30:11.038Z,20.73
2018-09-13T20:32:40.443Z,21.20
2018-09-13T20:35:10.892Z,22.17
2018-09-13T20:37:41.996Z,23.47
2018-09-13T20:40:11.622Z,21.83
2018-09-13T20:42:41.139Z,19.03
2018-09-13T20:45:11.610Z,20.77
2018-09-13T20:47:41.187Z,23.70
2018-09-13T20:50:10.662Z,22.83
2018-09-13T20:52:40.133Z,24.53
2018-09-13T20:55:10.646Z,24.30
2018-09-13T20:57:40.164Z,24.83
2018-09-13T21:00:14.166Z,24.33
2018-09-13T21:02:49.827Z,25.03
2018-09-13T21:05:20.140Z,22.63
2018-09-13T21:07:51.282Z,23.47
2018-09-13T21:10:20.831Z,21.03
2018-09-13T21:12:50.335Z,22.50
2018-09-13T21:15:19.877Z,23.03
2018-09-13T21:17:49.442Z,22.77
2018-09-13T21:20:18.880Z,17.47
2018-09-13T21:22:48.303Z,14.30
2018-09-13T21:25:18.439Z,15.70
2018-09-13T21:27:47.987Z,18.67
2018-09-13T21:30:17.403Z,17.23
2018-09-13T21:32:46.871Z,16.87
2018-09-13T21:35:17.335Z,16.40
2018-09-13T21:37:46.868Z,18.43
2018-09-13T21:40:16.314Z,15.30
2018-09-13T21:42:46.767Z,15.70
2018-09-13T21:45:16.138Z,14.30
2018-09-13T21:47:45.661Z,13.57
2018-09-13T21:50:15.269Z,12.53
2018-09-13T21:52:44.731Z,13.23
2018-09-13T21:55:14.241Z,12.70
2018-09-13T21:57:44.611Z,13.20
2018-09-13T22:00:15.068Z,13.10
2018-09-13T22:02:44.697Z,11.83
2018-09-13T22:05:14.253Z,12.90
2018-09-13T22:07:43.818Z,10.87
2018-09-13T22:10:14.253Z,12.20
2018-09-13T22:12:43.714Z,12.23
2018-09-13T22:15:13.057Z,13.07
2018-09-13T22:17:44.601Z,13.50
2018-09-13T22:20:13.967Z,14.27
2018-09-13T22:22:44.088Z,14.80
2018-09-13T22:25:18.150Z,15.17
2018-09-13T22:27:47.592Z,16.60
2018-09-13T22:30:17.032Z,17.10
2018-09-13T22:32:46.553Z,16.10
2018-09-13T22:35:16.035Z,15.87
2018-09-13T22:37:48.531Z,15.50
2018-09-13T22:40:17.918Z,15.07
2018-09-13T22:42:47.312Z,15.93
2018-09-13T22:45:16.710Z,15.97
2018-09-13T22:47:46.224Z,15.17
2018-09-13T22:50:15.711Z,15.03
2018-09-13T22:52:46.281Z,14.13
2018-09-13T22:55:15.692Z,14.83
2018-09-13T22:57:45.165Z,12.83
2018-09-13T23:00:16.831Z,11.77
2018-09-13T23:02:49.341Z,10.40
2018-09-13T23:05:19.737Z,9.73
2018-09-13T23:07:49.117Z,8.73
2018-09-13T23:10:18.524Z,8.20
2018-09-13T23:12:47.936Z,8.60
2018-09-13T23:15:17.378Z,7.67
2018-09-13T23:17:46.809Z,7.57
2018-09-13T23:20:16.221Z,7.23
2018-09-13T23:22:45.640Z,6.80
2018-09-13T23:25:15.028Z,6.97
2018-09-13T23:27:44.526Z,6.80
2018-09-13T23:30:14.136Z,6.73
2018-09-13T23:32:45.938Z,7.43
2018-09-13T23:35:18.680Z,6.93
2018-09-13T23:37:48.053Z,6.53
2018-09-13T23:40:17.692Z,6.97
2018-09-13T23:42:47.024Z,5.20
2018-09-13T23:45:16.597Z,5.53
2018-09-13T23:47:46.121Z,5.63
2018-09-13T23:50:15.800Z,6.20
2018-09-13T23:52:45.236Z,5.77
2018-09-13T23:55:15.652Z,6.07
2018-09-13T23:57:45.195Z,6.00
